sensor_id;sensor_type;location;lat;lon;timestamp;P1;durP1;ratioP1;P2;durP2;ratioP2
20557;SDS011;10437;48.156;11.530;2023-03-13T00:02:30;5.57;;;1.50;;
20557;SDS011;10437;48.156;11.530;2023-03-13T00:04:59;3.03;;;1.00;;
20557;SDS011;10437;48.156;11.530;2023-03-13T00:07:25;3.23;;;1.10;;
20557;SDS011;10437;48.156;11.530;2023-03-13T00:09:52;3.33;;;1.03;;
20557;SDS011;10437;48.156;11.530;2023-03-13T00:12:20;2.90;;;0.87;;
20557;SDS011;10437;48.156;11.530;2023-03-13T00:14:47;2.57;;;0.87;;
20557;SDS011;10437;48.156;11.530;2023-03-13T00:17:14;3.20;;;1.07;;
20557;SDS011;10437;48.156;11.530;2023-03-13T00:19:41;2.33;;;0.90;;
20557;SDS011;10437;48.156;11.530;2023-03-13T00:22:09;5.80;;;1.00;;
20557;SDS011;10437;48.156;11.530;2023-03-13T00:24:36;3.27;;;1.00;;
20557;SDS011;10437;48.156;11.530;2023-03-13T00:27:03;3.87;;;1.03;;
20557;SDS011;10437;48.156;11.530;2023-03-13T00:29:31;3.60;;;1.37;;
20557;SDS011;10437;48.156;11.530;2023-03-13T00:31:59;2.47;;;1.00;;
20557;SDS011;10437;48.156;11.530;2023-03-13T00:34:27;2.50;;;1.00;;
20557;SDS011;10437;48.156;11.530;2023-03-13T00:36:54;2.80;;;1.07;;
20557;SDS011;10437;48.156;11.530;2023-03-13T00:39:23;4.30;;;1.20;;
20557;SDS011;10437;48.156;11.530;2023-03-13T00:41:49;1.70;;;1.00;;
20557;SDS011;10437;48.156;11.530;2023-03-13T00:44:16;4.80;;;0.90;;
20557;SDS011;10437;48.156;11.530;2023-03-13T00:46:44;3.40;;;1.20;;
20557;SDS011;10437;48.156;11.530;2023-03-13T00:49:11;5.03;;;1.07;;
20557;SDS011;10437;48.156;11.530;2023-03-13T00:51:38;5.47;;;1.20;;
20557;SDS011;10437;48.156;11.530;2023-03-13T00:54:05;2.27;;;0.90;;
20557;SDS011;10437;48.156;11.530;2023-03-13T00:56:33;2.67;;;0.97;;
20557;SDS011;10437;48.156;11.530;2023-03-13T00:59:01;2.73;;;0.90;;
20557;SDS011;10437;48.156;11.530;2023-03-13T01:01:29;4.00;;;0.80;;
20557;SDS011;10437;48.156;11.530;2023-03-13T01:03:58;4.27;;;1.10;;
20557;SDS011;10437;48.156;11.530;2023-03-13T01:06:27;2.63;;;0.90;;
20557;SDS011;10437;48.156;11.530;2023-03-13T01:08:55;2.50;;;0.87;;
20557;SDS011;10437;48.156;11.530;2023-03-13T01:11:23;1.43;;;0.77;;
20557;SDS011;10437;48.156;11.530;2023-03-13T01:13:53;1.63;;;1.03;;
20557;SDS011;10437;48.156;11.530;2023-03-13T01:16:22;1.90;;;0.90;;
20557;SDS011;10437;48.156;11.530;2023-03-13T01:18:50;2.37;;;0.80;;
20557;SDS011;10437;48.156;11.530;2023-03-13T01:21:18;1.83;;;0.90;;
20557;SDS011;10437;48.156;11.530;2023-03-13T01:23:46;1.70;;;0.70;;
20557;SDS011;10437;48.156;11.530;2023-03-13T01:26:13;3.10;;;0.80;;
20557;SDS011;10437;48.156;11.530;2023-03-13T01:28:41;4.10;;;0.90;;
20557;SDS011;10437;48.156;11.530;2023-03-13T01:31:13;1.33;;;0.70;;
20557;SDS011;10437;48.156;11.530;2023-03-13T01:33:41;2.07;;;1.00;;
20557;SDS011;10437;48.156;11.530;2023-03-13T01:36:08;1.20;;;0.80;;
20557;SDS011;10437;48.156;11.530;2023-03-13T01:38:36;2.13;;;0.70;;
20557;SDS011;10437;48.156;11.530;2023-03-13T01:41:03;2.60;;;1.03;;
20557;SDS011;10437;48.156;11.530;2023-03-13T01:43:32;2.07;;;0.90;;
20557;SDS011;10437;48.156;11.530;2023-03-13T01:46:01;3.37;;;0.77;;
20557;SDS011;10437;48.156;11.530;2023-03-13T01:48:34;1.70;;;0.70;;
20557;SDS011;10437;48.156;11.530;2023-03-13T01:51:05;1.67;;;0.80;;
20557;SDS011;10437;48.156;11.530;2023-03-13T01:53:36;3.03;;;0.90;;
20557;SDS011;10437;48.156;11.530;2023-03-13T01:56:07;1.03;;;0.80;;
20557;SDS011;10437;48.156;11.530;2023-03-13T01:58:38;1.73;;;0.60;;
20557;SDS011;10437;48.156;11.530;2023-03-13T02:01:05;3.37;;;0.90;;
20557;SDS011;10437;48.156;11.530;2023-03-13T02:03:34;1.80;;;0.80;;
20557;SDS011;10437;48.156;11.530;2023-03-13T02:06:02;1.30;;;0.60;;
20557;SDS011;10437;48.156;11.530;2023-03-13T02:08:31;3.83;;;0.93;;
20557;SDS011;10437;48.156;11.530;2023-03-13T02:11:03;1.43;;;0.60;;
20557;SDS011;10437;48.156;11.530;2023-03-13T02:13:38;3.43;;;0.83;;
20557;SDS011;10437;48.156;11.530;2023-03-13T02:16:05;1.43;;;0.83;;
20557;SDS011;10437;48.156;11.530;2023-03-13T02:18:35;2.43;;;0.60;;
20557;SDS011;10437;48.156;11.530;2023-03-13T02:21:06;1.53;;;0.90;;
20557;SDS011;10437;48.156;11.530;2023-03-13T02:23:38;2.47;;;0.60;;
20557;SDS011;10437;48.156;11.530;2023-03-13T02:26:11;1.47;;;0.87;;
20557;SDS011;10437;48.156;11.530;2023-03-13T02:28:38;2.07;;;0.77;;
20557;SDS011;10437;48.156;11.530;2023-03-13T02:31:06;1.50;;;0.90;;
20557;SDS011;10437;48.156;11.530;2023-03-13T02:33:35;1.37;;;0.60;;
20557;SDS011;10437;48.156;11.530;2023-03-13T02:36:04;1.90;;;0.63;;
20557;SDS011;10437;48.156;11.530;2023-03-13T02:38:33;1.07;;;0.77;;
20557;SDS011;10437;48.156;11.530;2023-03-13T02:41:03;1.90;;;0.80;;
20557;SDS011;10437;48.156;11.530;2023-03-13T02:43:33;1.13;;;0.57;;
20557;SDS011;10437;48.156;11.530;2023-03-13T02:46:02;2.10;;;0.80;;
20557;SDS011;10437;48.156;11.530;2023-03-13T02:48:31;1.17;;;0.63;;
20557;SDS011;10437;48.156;11.530;2023-03-13T02:51:00;1.83;;;0.63;;
20557;SDS011;10437;48.156;11.530;2023-03-13T02:53:28;2.20;;;0.73;;
20557;SDS011;10437;48.156;11.530;2023-03-13T02:55:56;1.43;;;0.70;;
20557;SDS011;10437;48.156;11.530;2023-03-13T02:58:23;1.43;;;0.73;;
20557;SDS011;10437;48.156;11.530;2023-03-13T03:00:52;1.43;;;0.70;;
20557;SDS011;10437;48.156;11.530;2023-03-13T03:03:19;1.43;;;0.90;;
20557;SDS011;10437;48.156;11.530;2023-03-13T03:05:46;1.30;;;0.57;;
20557;SDS011;10437;48.156;11.530;2023-03-13T03:08:13;1.53;;;0.80;;
20557;SDS011;10437;48.156;11.530;2023-03-13T03:10:40;1.70;;;0.73;;
20557;SDS011;10437;48.156;11.530;2023-03-13T03:13:07;1.37;;;0.70;;
20557;SDS011;10437;48.156;11.530;2023-03-13T03:15:34;2.67;;;0.80;;
20557;SDS011;10437;48.156;11.530;2023-03-13T03:18:03;1.13;;;0.67;;
20557;SDS011;10437;48.156;11.530;2023-03-13T03:20:30;2.40;;;0.73;;
20557;SDS011;10437;48.156;11.530;2023-03-13T03:22:57;0.87;;;0.50;;
20557;SDS011;10437;48.156;11.530;2023-03-13T03:25:24;0.60;;;0.50;;
20557;SDS011;10437;48.156;11.530;2023-03-13T03:27:51;0.67;;;0.50;;
20557;SDS011;10437;48.156;11.530;2023-03-13T03:30:19;0.70;;;0.40;;
20557;SDS011;10437;48.156;11.530;2023-03-13T03:32:46;1.67;;;0.47;;
20557;SDS011;10437;48.156;11.530;2023-03-13T03:35:14;1.03;;;0.40;;
20557;SDS011;10437;48.156;11.530;2023-03-13T03:37:42;0.90;;;0.53;;
20557;SDS011;10437;48.156;11.530;2023-03-13T03:40:09;0.80;;;0.50;;
20557;SDS011;10437;48.156;11.530;2023-03-13T03:42:37;1.13;;;0.53;;
20557;SDS011;10437;48.156;11.530;2023-03-13T03:45:05;0.90;;;0.60;;
20557;SDS011;10437;48.156;11.530;2023-03-13T03:47:32;1.27;;;0.50;;
20557;SDS011;10437;48.156;11.530;2023-03-13T03:49:59;0.70;;;0.43;;
20557;SDS011;10437;48.156;11.530;2023-03-13T03:52:29;0.77;;;0.50;;
20557;SDS011;10437;48.156;11.530;2023-03-13T03:54:55;0.73;;;0.50;;
20557;SDS011;10437;48.156;11.530;2023-03-13T03:57:23;1.17;;;0.60;;
20557;SDS011;10437;48.156;11.530;2023-03-13T03:59:50;1.23;;;0.60;;
20557;SDS011;10437;48.156;11.530;2023-03-13T04:02:17;0.70;;;0.50;;
20557;SDS011;10437;48.156;11.530;2023-03-13T04:04:44;0.97;;;0.50;;
20557;SDS011;10437;48.156;11.530;2023-03-13T04:07:11;1.70;;;0.30;;
20557;SDS011;10437;48.156;11.530;2023-03-13T04:09:40;1.70;;;0.40;;
20557;SDS011;10437;48.156;11.530;2023-03-13T04:12:07;0.40;;;0.37;;
20557;SDS011;10437;48.156;11.530;2023-03-13T04:14:34;1.43;;;0.63;;
20557;SDS011;10437;48.156;11.530;2023-03-13T04:17:01;0.80;;;0.50;;
20557;SDS011;10437;48.156;11.530;2023-03-13T04:19:29;1.77;;;0.50;;
20557;SDS011;10437;48.156;11.530;2023-03-13T04:21:56;0.90;;;0.60;;
20557;SDS011;10437;48.156;11.530;2023-03-13T04:24:23;1.53;;;0.70;;
20557;SDS011;10437;48.156;11.530;2023-03-13T04:26:52;2.43;;;0.70;;
20557;SDS011;10437;48.156;11.530;2023-03-13T04:29:18;1.57;;;0.70;;
20557;SDS011;10437;48.156;11.530;2023-03-13T04:31:46;0.83;;;0.40;;
20557;SDS011;10437;48.156;11.530;2023-03-13T04:34:13;1.67;;;0.60;;
20557;SDS011;10437;48.156;11.530;2023-03-13T04:36:40;0.90;;;0.50;;
20557;SDS011;10437;48.156;11.530;2023-03-13T04:39:07;0.80;;;0.43;;
20557;SDS011;10437;48.156;11.530;2023-03-13T04:41:34;1.67;;;0.67;;
20557;SDS011;10437;48.156;11.530;2023-03-13T04:44:03;1.33;;;0.50;;
20557;SDS011;10437;48.156;11.530;2023-03-13T04:46:29;1.10;;;0.50;;
20557;SDS011;10437;48.156;11.530;2023-03-13T04:48:57;5.20;;;0.70;;
20557;SDS011;10437;48.156;11.530;2023-03-13T04:51:24;1.27;;;0.60;;
20557;SDS011;10437;48.156;11.530;2023-03-13T04:53:51;1.00;;;0.60;;
20557;SDS011;10437;48.156;11.530;2023-03-13T04:56:21;0.50;;;0.50;;
20557;SDS011;10437;48.156;11.530;2023-03-13T04:58:49;1.57;;;0.47;;
20557;SDS011;10437;48.156;11.530;2023-03-13T05:01:18;1.50;;;0.70;;
20557;SDS011;10437;48.156;11.530;2023-03-13T05:03:45;1.20;;;0.60;;
20557;SDS011;10437;48.156;11.530;2023-03-13T05:06:12;1.00;;;0.53;;
20557;SDS011;10437;48.156;11.530;2023-03-13T05:08:39;1.70;;;0.57;;
20557;SDS011;10437;48.156;11.530;2023-03-13T05:11:06;0.80;;;0.60;;
20557;SDS011;10437;48.156;11.530;2023-03-13T05:13:33;1.90;;;0.80;;
20557;SDS011;10437;48.156;11.530;2023-03-13T05:16:01;1.07;;;0.60;;
20557;SDS011;10437;48.156;11.530;2023-03-13T05:18:29;1.70;;;0.53;;
20557;SDS011;10437;48.156;11.530;2023-03-13T05:20:56;1.47;;;0.40;;
20557;SDS011;10437;48.156;11.530;2023-03-13T05:23:23;0.47;;;0.40;;
20557;SDS011;10437;48.156;11.530;2023-03-13T05:25:51;2.63;;;0.80;;
20557;SDS011;10437;48.156;11.530;2023-03-13T05:28:18;1.53;;;0.63;;
20557;SDS011;10437;48.156;11.530;2023-03-13T05:30:45;3.10;;;0.67;;
20557;SDS011;10437;48.156;11.530;2023-03-13T05:33:12;3.10;;;0.50;;
20557;SDS011;10437;48.156;11.530;2023-03-13T05:35:41;0.90;;;0.60;;
20557;SDS011;10437;48.156;11.530;2023-03-13T05:38:08;2.67;;;0.70;;
20557;SDS011;10437;48.156;11.530;2023-03-13T05:40:35;0.50;;;0.40;;
20557;SDS011;10437;48.156;11.530;2023-03-13T05:43:02;1.17;;;0.70;;
20557;SDS011;10437;48.156;11.530;2023-03-13T05:45:29;4.73;;;0.90;;
20557;SDS011;10437;48.156;11.530;2023-03-13T05:47:56;0.83;;;0.50;;
20557;SDS011;10437;48.156;11.530;2023-03-13T05:50:23;1.83;;;0.50;;
20557;SDS011;10437;48.156;11.530;2023-03-13T05:52:52;4.67;;;0.80;;
20557;SDS011;10437;48.156;11.530;2023-03-13T05:55:19;2.33;;;0.87;;
20557;SDS011;10437;48.156;11.530;2023-03-13T05:57:47;1.67;;;0.50;;
20557;SDS011;10437;48.156;11.530;2023-03-13T06:00:15;2.30;;;0.63;;
20557;SDS011;10437;48.156;11.530;2023-03-13T06:02:43;0.80;;;0.53;;
20557;SDS011;10437;48.156;11.530;2023-03-13T06:05:10;1.40;;;0.60;;
20557;SDS011;10437;48.156;11.530;2023-03-13T06:07:37;0.80;;;0.60;;
20557;SDS011;10437;48.156;11.530;2023-03-13T06:10:06;1.70;;;0.67;;
20557;SDS011;10437;48.156;11.530;2023-03-13T06:12:34;1.43;;;0.60;;
20557;SDS011;10437;48.156;11.530;2023-03-13T06:15:01;2.37;;;0.60;;
20557;SDS011;10437;48.156;11.530;2023-03-13T06:17:30;2.13;;;0.67;;
20557;SDS011;10437;48.156;11.530;2023-03-13T06:19:57;1.33;;;0.67;;
20557;SDS011;10437;48.156;11.530;2023-03-13T06:22:24;3.43;;;1.10;;
20557;SDS011;10437;48.156;11.530;2023-03-13T06:24:52;5.20;;;1.90;;
20557;SDS011;10437;48.156;11.530;2023-03-13T06:27:20;3.87;;;1.53;;
20557;SDS011;10437;48.156;11.530;2023-03-13T06:29:47;6.87;;;1.37;;
20557;SDS011;10437;48.156;11.530;2023-03-13T06:32:14;2.10;;;0.80;;
20557;SDS011;10437;48.156;11.530;2023-03-13T06:34:41;1.30;;;0.60;;
20557;SDS011;10437;48.156;11.530;2023-03-13T06:37:08;2.63;;;0.73;;
20557;SDS011;10437;48.156;11.530;2023-03-13T06:39:36;2.53;;;0.60;;
20557;SDS011;10437;48.156;11.530;2023-03-13T06:42:03;1.47;;;0.60;;
20557;SDS011;10437;48.156;11.530;2023-03-13T06:44:32;1.00;;;0.53;;
20557;SDS011;10437;48.156;11.530;2023-03-13T06:46:59;1.20;;;0.50;;
20557;SDS011;10437;48.156;11.530;2023-03-13T06:49:26;0.87;;;0.60;;
20557;SDS011;10437;48.156;11.530;2023-03-13T06:51:55;1.87;;;0.50;;
20557;SDS011;10437;48.156;11.530;2023-03-13T06:54:22;2.43;;;0.67;;
20557;SDS011;10437;48.156;11.530;2023-03-13T06:56:50;4.70;;;0.80;;
20557;SDS011;10437;48.156;11.530;2023-03-13T06:59:17;1.43;;;0.60;;
20557;SDS011;10437;48.156;11.530;2023-03-13T07:01:45;1.03;;;0.60;;
20557;SDS011;10437;48.156;11.530;2023-03-13T07:04:12;0.93;;;0.60;;
20557;SDS011;10437;48.156;11.530;2023-03-13T07:06:40;5.33;;;0.80;;
20557;SDS011;10437;48.156;11.530;2023-03-13T07:09:07;3.20;;;0.60;;
20557;SDS011;10437;48.156;11.530;2023-03-13T07:11:35;2.07;;;0.70;;
20557;SDS011;10437;48.156;11.530;2023-03-13T07:14:02;1.97;;;0.50;;
20557;SDS011;10437;48.156;11.530;2023-03-13T07:16:29;1.27;;;0.60;;
20557;SDS011;10437;48.156;11.530;2023-03-13T07:18:58;1.30;;;0.60;;
20557;SDS011;10437;48.156;11.530;2023-03-13T07:21:25;2.70;;;0.70;;
20557;SDS011;10437;48.156;11.530;2023-03-13T07:23:52;3.87;;;0.97;;
20557;SDS011;10437;48.156;11.530;2023-03-13T07:26:19;5.53;;;1.10;;
20557;SDS011;10437;48.156;11.530;2023-03-13T07:28:46;3.10;;;0.70;;
20557;SDS011;10437;48.156;11.530;2023-03-13T07:31:14;2.20;;;0.70;;
20557;SDS011;10437;48.156;11.530;2023-03-13T07:33:42;3.33;;;1.23;;
20557;SDS011;10437;48.156;11.530;2023-03-13T07:36:11;4.23;;;1.30;;
20557;SDS011;10437;48.156;11.530;2023-03-13T07:38:40;6.47;;;1.30;;
20557;SDS011;10437;48.156;11.530;2023-03-13T07:41:09;2.57;;;1.23;;
20557;SDS011;10437;48.156;11.530;2023-03-13T07:43:38;2.67;;;1.00;;
20557;SDS011;10437;48.156;11.530;2023-03-13T07:46:05;2.87;;;0.70;;
20557;SDS011;10437;48.156;11.530;2023-03-13T07:48:34;3.47;;;0.77;;
20557;SDS011;10437;48.156;11.530;2023-03-13T07:51:02;4.00;;;0.80;;
20557;SDS011;10437;48.156;11.530;2023-03-13T07:53:31;5.33;;;0.70;;
20557;SDS011;10437;48.156;11.530;2023-03-13T07:55:58;2.30;;;0.83;;
20557;SDS011;10437;48.156;11.530;2023-03-13T07:58:28;1.23;;;0.60;;
20557;SDS011;10437;48.156;11.530;2023-03-13T08:00:56;3.43;;;1.10;;
20557;SDS011;10437;48.156;11.530;2023-03-13T08:03:23;1.80;;;0.70;;
20557;SDS011;10437;48.156;11.530;2023-03-13T08:05:57;3.57;;;0.70;;
20557;SDS011;10437;48.156;11.530;2023-03-13T08:08:25;2.07;;;0.80;;
20557;SDS011;10437;48.156;11.530;2023-03-13T08:10:57;5.93;;;0.83;;
20557;SDS011;10437;48.156;11.530;2023-03-13T08:13:25;4.60;;;0.70;;
20557;SDS011;10437;48.156;11.530;2023-03-13T08:15:59;4.10;;;0.83;;
20557;SDS011;10437;48.156;11.530;2023-03-13T08:18:27;2.80;;;0.70;;
20557;SDS011;10437;48.156;11.530;2023-03-13T08:20:59;4.00;;;1.00;;
20557;SDS011;10437;48.156;11.530;2023-03-13T08:23:27;3.08;;;0.70;;
20557;SDS011;10437;48.156;11.530;2023-03-13T08:25:56;1.95;;;0.60;;
20557;SDS011;10437;48.156;11.530;2023-03-13T08:28:27;2.80;;;0.90;;
20557;SDS011;10437;48.156;11.530;2023-03-13T08:30:54;4.17;;;0.80;;
20557;SDS011;10437;48.156;11.530;2023-03-13T08:33:21;1.27;;;0.70;;
20557;SDS011;10437;48.156;11.530;2023-03-13T08:35:48;2.35;;;0.82;;
20557;SDS011;10437;48.156;11.530;2023-03-13T08:38:15;5.82;;;1.20;;
20557;SDS011;10437;48.156;11.530;2023-03-13T08:40:43;1.88;;;0.90;;
20557;SDS011;10437;48.156;11.530;2023-03-13T08:43:11;1.90;;;0.80;;
20557;SDS011;10437;48.156;11.530;2023-03-13T08:45:38;1.88;;;0.93;;
20557;SDS011;10437;48.156;11.530;2023-03-13T08:48:05;1.02;;;0.60;;
20557;SDS011;10437;48.156;11.530;2023-03-13T08:50:32;1.00;;;0.60;;
20557;SDS011;10437;48.156;11.530;2023-03-13T08:52:59;1.55;;;0.57;;
20557;SDS011;10437;48.156;11.530;2023-03-13T08:55:26;0.93;;;0.65;;
20557;SDS011;10437;48.156;11.530;2023-03-13T08:57:54;1.02;;;0.60;;
20557;SDS011;10437;48.156;11.530;2023-03-13T09:00:22;0.80;;;0.50;;
20557;SDS011;10437;48.156;11.530;2023-03-13T09:02:49;1.75;;;0.70;;
20557;SDS011;10437;48.156;11.530;2023-03-13T09:05:16;1.40;;;0.63;;
20557;SDS011;10437;48.156;11.530;2023-03-13T09:07:43;0.60;;;0.43;;
20557;SDS011;10437;48.156;11.530;2023-03-13T09:10:11;1.90;;;0.68;;
20557;SDS011;10437;48.156;11.530;2023-03-13T09:12:38;2.85;;;0.50;;
20557;SDS011;10437;48.156;11.530;2023-03-13T09:15:06;0.77;;;0.40;;
20557;SDS011;10437;48.156;11.530;2023-03-13T09:17:35;0.82;;;0.50;;
20557;SDS011;10437;48.156;11.530;2023-03-13T09:20:02;1.00;;;0.40;;
20557;SDS011;10437;48.156;11.530;2023-03-13T09:22:33;1.63;;;0.60;;
20557;SDS011;10437;48.156;11.530;2023-03-13T09:24:59;1.95;;;0.45;;
20557;SDS011;10437;48.156;11.530;2023-03-13T09:27:27;1.25;;;0.32;;
20557;SDS011;10437;48.156;11.530;2023-03-13T09:29:54;3.08;;;0.43;;
20557;SDS011;10437;48.156;11.530;2023-03-13T09:32:21;0.57;;;0.43;;
20557;SDS011;10437;48.156;11.530;2023-03-13T09:34:50;3.45;;;0.47;;
20557;SDS011;10437;48.156;11.530;2023-03-13T09:37:16;0.70;;;0.50;;
20557;SDS011;10437;48.156;11.530;2023-03-13T09:39:44;3.08;;;0.57;;
20557;SDS011;10437;48.156;11.530;2023-03-13T09:42:12;0.52;;;0.30;;
20557;SDS011;10437;48.156;11.530;2023-03-13T09:44:44;1.23;;;0.38;;
20557;SDS011;10437;48.156;11.530;2023-03-13T09:47:17;0.60;;;0.38;;
20557;SDS011;10437;48.156;11.530;2023-03-13T09:49:50;1.02;;;0.38;;
20557;SDS011;10437;48.156;11.530;2023-03-13T09:52:21;0.40;;;0.40;;
20557;SDS011;10437;48.156;11.530;2023-03-13T09:54:50;4.20;;;0.40;;
20557;SDS011;10437;48.156;11.530;2023-03-13T09:57:22;1.85;;;0.40;;
20557;SDS011;10437;48.156;11.530;2023-03-13T09:59:54;3.17;;;0.73;;
20557;SDS011;10437;48.156;11.530;2023-03-13T10:02:26;0.63;;;0.25;;
20557;SDS011;10437;48.156;11.530;2023-03-13T10:04:58;0.73;;;0.30;;
20557;SDS011;10437;48.156;11.530;2023-03-13T10:07:31;1.08;;;0.30;;
20557;SDS011;10437;48.156;11.530;2023-03-13T10:09:59;1.38;;;0.40;;
20557;SDS011;10437;48.156;11.530;2023-03-13T10:12:27;1.30;;;0.60;;
20557;SDS011;10437;48.156;11.530;2023-03-13T10:14:59;4.97;;;0.45;;
20557;SDS011;10437;48.156;11.530;2023-03-13T10:17:42;2.90;;;0.57;;
20557;SDS011;10437;48.156;11.530;2023-03-13T10:20:16;0.57;;;0.30;;
20557;SDS011;10437;48.156;11.530;2023-03-13T10:22:47;0.98;;;0.20;;
20557;SDS011;10437;48.156;11.530;2023-03-13T10:25:24;1.48;;;0.50;;
20557;SDS011;10437;48.156;11.530;2023-03-13T10:27:55;1.98;;;0.30;;
20557;SDS011;10437;48.156;11.530;2023-03-13T10:30:23;1.65;;;0.30;;
20557;SDS011;10437;48.156;11.530;2023-03-13T10:32:52;0.55;;;0.30;;
20557;SDS011;10437;48.156;11.530;2023-03-13T10:35:24;0.40;;;0.20;;
20557;SDS011;10437;48.156;11.530;2023-03-13T10:37:59;1.83;;;0.40;;
20557;SDS011;10437;48.156;11.530;2023-03-13T10:40:28;0.93;;;0.17;;
20557;SDS011;10437;48.156;11.530;2023-03-13T10:42:59;1.95;;;0.20;;
20557;SDS011;10437;48.156;11.530;2023-03-13T10:45:30;1.65;;;0.40;;
20557;SDS011;10437;48.156;11.530;2023-03-13T10:47:59;0.77;;;0.30;;
20557;SDS011;10437;48.156;11.530;2023-03-13T10:50:32;1.25;;;0.30;;
20557;SDS011;10437;48.156;11.530;2023-03-13T10:53:06;1.00;;;0.30;;
20557;SDS011;10437;48.156;11.530;2023-03-13T10:55:45;0.75;;;0.30;;
20557;SDS011;10437;48.156;11.530;2023-03-13T10:58:16;0.30;;;0.20;;
20557;SDS011;10437;48.156;11.530;2023-03-13T11:00:46;0.43;;;0.30;;
20557;SDS011;10437;48.156;11.530;2023-03-13T11:03:14;1.17;;;0.47;;
20557;SDS011;10437;48.156;11.530;2023-03-13T11:05:45;0.52;;;0.30;;
20557;SDS011;10437;48.156;11.530;2023-03-13T11:08:22;1.00;;;0.20;;
20557;SDS011;10437;48.156;11.530;2023-03-13T11:10:52;2.17;;;0.30;;
20557;SDS011;10437;48.156;11.530;2023-03-13T11:13:34;0.85;;;0.30;;
20557;SDS011;10437;48.156;11.530;2023-03-13T11:16:05;0.60;;;0.30;;
20557;SDS011;10437;48.156;11.530;2023-03-13T11:19:00;0.68;;;0.17;;
20557;SDS011;10437;48.156;11.530;2023-03-13T11:21:47;0.30;;;0.20;;
20557;SDS011;10437;48.156;11.530;2023-03-13T11:24:23;0.22;;;0.20;;
20557;SDS011;10437;48.156;11.530;2023-03-13T11:26:58;0.20;;;0.20;;
20557;SDS011;10437;48.156;11.530;2023-03-13T11:29:37;0.85;;;0.28;;
20557;SDS011;10437;48.156;11.530;2023-03-13T11:32:12;1.85;;;0.25;;
20557;SDS011;10437;48.156;11.530;2023-03-13T11:34:49;0.28;;;0.15;;
20557;SDS011;10437;48.156;11.530;2023-03-13T11:37:22;0.90;;;0.40;;
20557;SDS011;10437;48.156;11.530;2023-03-13T11:39:55;1.23;;;0.20;;
20557;SDS011;10437;48.156;11.530;2023-03-13T11:42:39;0.40;;;0.20;;
20557;SDS011;10437;48.156;11.530;2023-03-13T11:45:33;1.67;;;0.40;;
20557;SDS011;10437;48.156;11.530;2023-03-13T11:48:30;0.57;;;0.30;;
20557;SDS011;10437;48.156;11.530;2023-03-13T11:51:10;2.15;;;0.60;;
20557;SDS011;10437;48.156;11.530;2023-03-13T11:53:53;0.57;;;0.38;;
20557;SDS011;10437;48.156;11.530;2023-03-13T11:56:32;2.20;;;0.50;;
20557;SDS011;10437;48.156;11.530;2023-03-13T11:59:13;1.15;;;0.40;;
20557;SDS011;10437;48.156;11.530;2023-03-13T12:01:50;0.88;;;0.40;;
20557;SDS011;10437;48.156;11.530;2023-03-13T12:04:21;2.08;;;0.43;;
20557;SDS011;10437;48.156;11.530;2023-03-13T12:06:53;3.60;;;0.30;;
20557;SDS011;10437;48.156;11.530;2023-03-13T12:09:29;1.02;;;0.30;;
20557;SDS011;10437;48.156;11.530;2023-03-13T12:12:00;1.38;;;0.50;;
20557;SDS011;10437;48.156;11.530;2023-03-13T12:14:30;1.70;;;0.40;;
20557;SDS011;10437;48.156;11.530;2023-03-13T12:17:01;1.50;;;0.50;;
20557;SDS011;10437;48.156;11.530;2023-03-13T12:19:31;2.22;;;0.68;;
20557;SDS011;10437;48.156;11.530;2023-03-13T12:22:06;1.92;;;0.65;;
20557;SDS011;10437;48.156;11.530;2023-03-13T12:24:41;2.38;;;0.65;;
20557;SDS011;10437;48.156;11.530;2023-03-13T12:27:14;2.78;;;0.40;;
20557;SDS011;10437;48.156;11.530;2023-03-13T12:29:48;2.22;;;0.60;;
20557;SDS011;10437;48.156;11.530;2023-03-13T12:32:23;4.30;;;0.77;;
20557;SDS011;10437;48.156;11.530;2023-03-13T12:34:58;2.85;;;0.70;;
20557;SDS011;10437;48.156;11.530;2023-03-13T12:37:33;1.70;;;0.70;;
20557;SDS011;10437;48.156;11.530;2023-03-13T12:40:12;3.25;;;0.77;;
20557;SDS011;10437;48.156;11.530;2023-03-13T12:42:46;1.73;;;0.63;;
20557;SDS011;10437;48.156;11.530;2023-03-13T12:45:20;1.55;;;0.70;;
20557;SDS011;10437;48.156;11.530;2023-03-13T12:48:13;2.85;;;0.73;;
20557;SDS011;10437;48.156;11.530;2023-03-13T12:50:58;0.70;;;0.63;;
20557;SDS011;10437;48.156;11.530;2023-03-13T12:53:40;6.43;;;0.70;;
20557;SDS011;10437;48.156;11.530;2023-03-13T12:56:34;2.13;;;0.70;;
20557;SDS011;10437;48.156;11.530;2023-03-13T12:59:10;0.90;;;0.40;;
20557;SDS011;10437;48.156;11.530;2023-03-13T13:01:41;4.40;;;0.73;;
20557;SDS011;10437;48.156;11.530;2023-03-13T13:04:12;1.75;;;0.73;;
20557;SDS011;10437;48.156;11.530;2023-03-13T13:06:51;1.10;;;0.55;;
20557;SDS011;10437;48.156;11.530;2023-03-13T13:09:22;1.77;;;0.90;;
20557;SDS011;10437;48.156;11.530;2023-03-13T13:11:53;2.30;;;0.80;;
20557;SDS011;10437;48.156;11.530;2023-03-13T13:20:26;2.88;;;0.75;;
20557;SDS011;10437;48.156;11.530;2023-03-13T13:41:01;3.58;;;0.82;;
20557;SDS011;10437;48.156;11.530;2023-03-13T13:43:30;5.28;;;0.80;;
20557;SDS011;10437;48.156;11.530;2023-03-13T13:45:59;1.85;;;0.68;;
20557;SDS011;10437;48.156;11.530;2023-03-13T13:48:32;1.50;;;0.52;;
20557;SDS011;10437;48.156;11.530;2023-03-13T13:53:59;1.13;;;0.75;;
20557;SDS011;10437;48.156;11.530;2023-03-13T13:59:24;1.58;;;0.60;;
20557;SDS011;10437;48.156;11.530;2023-03-13T14:05:02;1.17;;;0.50;;
20557;SDS011;10437;48.156;11.530;2023-03-13T14:07:31;3.05;;;0.60;;
20557;SDS011;10437;48.156;11.530;2023-03-13T14:12:57;1.10;;;0.57;;
20557;SDS011;10437;48.156;11.530;2023-03-13T14:15:26;0.50;;;0.40;;
20557;SDS011;10437;48.156;11.530;2023-03-13T14:17:54;0.50;;;0.40;;
20557;SDS011;10437;48.156;11.530;2023-03-13T14:20:30;1.02;;;0.57;;
20557;SDS011;10437;48.156;11.530;2023-03-13T14:22:59;1.52;;;0.50;;
20557;SDS011;10437;48.156;11.530;2023-03-13T14:25:27;0.98;;;0.40;;
20557;SDS011;10437;48.156;11.530;2023-03-13T14:28:14;2.08;;;0.55;;
20557;SDS011;10437;48.156;11.530;2023-03-13T14:30:43;0.65;;;0.40;;
20557;SDS011;10437;48.156;11.530;2023-03-13T14:33:11;2.85;;;0.50;;
20557;SDS011;10437;48.156;11.530;2023-03-13T14:35:40;2.95;;;0.40;;
20557;SDS011;10437;48.156;11.530;2023-03-13T14:38:14;3.42;;;0.50;;
20557;SDS011;10437;48.156;11.530;2023-03-13T14:40:42;1.75;;;0.50;;
20557;SDS011;10437;48.156;11.530;2023-03-13T14:43:16;1.17;;;0.50;;
20557;SDS011;10437;48.156;11.530;2023-03-13T14:45:50;1.58;;;0.40;;
20557;SDS011;10437;48.156;11.530;2023-03-13T14:48:19;1.38;;;0.70;;
20557;SDS011;10437;48.156;11.530;2023-03-13T14:50:49;2.88;;;0.30;;
20557;SDS011;10437;48.156;11.530;2023-03-13T14:53:20;1.02;;;0.60;;
20557;SDS011;10437;48.156;11.530;2023-03-13T14:55:47;1.95;;;0.60;;
20557;SDS011;10437;48.156;11.530;2023-03-13T14:58:25;2.78;;;0.50;;
20557;SDS011;10437;48.156;11.530;2023-03-13T15:00:53;3.60;;;0.55;;
20557;SDS011;10437;48.156;11.530;2023-03-13T15:03:31;1.05;;;0.60;;
20557;SDS011;10437;48.156;11.530;2023-03-13T15:11:40;0.75;;;0.40;;
20557;SDS011;10437;48.156;11.530;2023-03-13T15:17:07;1.77;;;0.60;;
20557;SDS011;10437;48.156;11.530;2023-03-13T15:19:38;1.05;;;0.50;;
20557;SDS011;10437;48.156;11.530;2023-03-13T15:22:10;5.65;;;0.70;;
20557;SDS011;10437;48.156;11.530;2023-03-13T15:24:39;4.15;;;0.70;;
20557;SDS011;10437;48.156;11.530;2023-03-13T15:27:09;2.33;;;0.50;;
20557;SDS011;10437;48.156;11.530;2023-03-13T15:29:40;1.48;;;0.60;;
20557;SDS011;10437;48.156;11.530;2023-03-13T15:32:08;3.38;;;0.60;;
20557;SDS011;10437;48.156;11.530;2023-03-13T15:34:40;2.25;;;0.50;;